Cheyenne, WY

8:09 AM MST on November 24, 2014 (GMT -0700)
Cheyenne | Change Station
CLOSE
Current Station
Personal Weather Station
Location: Cheyenne, WY
Elevation: 6138 ft
Nearby Weather Stations
Active Advisory: High Wind Watch

Elev 6138 ft 41.15 °N, 104.82 °W | Updated 30 minutes ago

Mostly Cloudy
Mostly Cloudy
28.0 °F
Feels Like 16 °F
N
17.0
Wind Variable Wind from WNW
Gusts 19.0 mph

Today
High -- | Low -- °F
--% Chance of Precip.
Yesterday
High -- | Low -- °F
Precip. -- in
6:57 AM 4:34 PM
Waxing Crescent, 5% visible
Pressure 29.94 in
Visibility 10.0 miles
Clouds Mostly Cloudy 9500 ft
Windchill 16 °F
Dew Point 13 °F
Humidity 53%
Rainfall 0.00 in
Snow Depth Not available.
UV 0 out of 12
Pollen .10 out of 12
Air Quality Not available.
Flu Activity Not available.
METAR KFEW 241456Z AUTO 30017G23KT 10SM BKN095 M02/M10 A2983 RMK AO2 SLP138 T10211098 52017 $

More Conditions Fewer Conditions

Pressure 29.94 in
Visibility 10.0 miles
Clouds Mostly Cloudy 9500 ft
Windchill 16 °F
Dew Point 13 °F
Humidity 53%
Rainfall 0.00 in
Snow Depth Not available.
UV 0 out of 12
Pollen .10 out of 12
Air Quality Not available.
Flu Activity Not available.
METAR KFEW 241456Z AUTO 30017G23KT 10SM BKN095 M02/M10 A2983 RMK AO2 SLP138 T10211098 52017 $

More Conditions Fewer Conditions

10-Day Weather Forecast

Almanac

Astronomy

Nov. 24, 2014 Rise Set
Actual Time
Civil Twilight
Nautical Twilight
Astronomical Twilight
Moon
Length of Visible Light
Length of Day
Tomorrow will be .
, % of the Moon is Illuminated

Today's Extremes

State Highs State Lows

Community

WunderPhotos

Upload Photos

1,773,360 photos uploaded!

WunderBlogs® & News

Nearby

Air Quality

  Air Quality AQ Index Pollutant
Not available.

Snow Depth

Station Depth Elevation

Earthquake Activity

City Distance Mag. Time & Date
Minimum magnitude displayed is 2.5.

Coastal Water Temperatures

Place Temperature

Nearby Weather Stations